Time;durP1;ratioP1;P1;durP2;ratioP2;P2;SDS_P1;SDS_P2;PMS_P1;PMS_P2;Temp;Humidity;BMP_temperature;BMP_pressure;BME280_temperature;BME280_humidity;BME280_pressure;Samples;Min_cycle;Max_cycle;Signal;HPM_P1;HPM_P2
2023/05/07 00:01:19;;;;;;;8.00;3.67;;;19.00;1.00;;;;;;4940201;29;20205;-85
2023/05/07 00:03:45;;;;;;;8.67;3.77;;;19.10;1.00;;;;;;4938159;29;20181;-83
2023/05/07 00:06:12;;;;;;;8.73;4.00;;;19.10;1.00;;;;;;4935720;29;20230;-80
2023/05/07 00:08:38;;;;;;;9.60;3.53;;;19.10;1.00;;;;;;4939071;29;20185;-85
2023/05/07 00:11:04;;;;;;;10.17;4.00;;;19.10;1.00;;;;;;4943195;29;20262;-82
2023/05/07 00:13:35;;;;;;;6.43;3.53;;;19.10;1.00;;;;;;4939553;29;20175;-83
2023/05/07 00:16:04;;;;;;;9.30;3.80;;;19.10;1.00;;;;;;4939603;29;20176;-83
2023/05/07 00:18:30;;;;;;;10.13;4.03;;;19.20;1.00;;;;;;4941142;29;20191;-84
2023/05/07 00:20:56;;;;;;;9.53;4.00;;;19.20;1.00;;;;;;4940489;29;20260;-84
2023/05/07 00:23:23;;;;;;;11.33;4.37;;;19.10;1.00;;;;;;4941515;29;20227;-85
2023/05/07 00:25:48;;;;;;;7.53;3.80;;;19.10;1.00;;;;;;4935592;29;20174;-85
2023/05/07 00:28:14;;;;;;;8.07;3.73;;;18.90;1.00;;;;;;4938117;29;20225;-84
2023/05/07 00:30:40;;;;;;;9.63;3.67;;;18.90;1.00;;;;;;4939258;29;20239;-84
2023/05/07 00:33:06;;;;;;;8.13;3.83;;;18.90;1.00;;;;;;4937503;29;20173;-85
2023/05/07 00:35:32;;;;;;;9.13;3.70;;;19.00;1.00;;;;;;4938738;29;20200;-85
2023/05/07 00:37:58;;;;;;;7.47;3.93;;;19.00;1.00;;;;;;4936832;29;20217;-83
2023/05/07 00:40:24;;;;;;;8.57;3.80;;;19.00;1.00;;;;;;4945881;28;20173;-83
2023/05/07 00:42:57;;;;;;;7.37;3.67;;;19.10;1.00;;;;;;4955380;28;20179;-84
2023/05/07 00:45:28;;;;;;;7.43;3.63;;;19.10;1.00;;;;;;4944671;29;20168;-81
2023/05/07 00:48:00;;;;;;;5.70;3.30;;;19.20;1.00;;;;;;4939759;29;20641;-82
2023/05/07 00:50:44;;;;;;;7.60;3.10;;;19.20;1.00;;;;;;4924570;29;20191;-81
2023/05/07 00:53:09;;;;;;;8.23;3.40;;;19.30;1.00;;;;;;4939638;29;20200;-80
2023/05/07 00:55:38;;;;;;;6.53;3.20;;;19.20;1.00;;;;;;4944916;29;20175;-83
2023/05/07 00:58:05;;;;;;;8.47;3.57;;;19.10;1.00;;;;;;4941641;29;20272;-85
2023/05/07 01:00:32;;;;;;;7.67;3.17;;;19.00;1.00;;;;;;4938277;29;20176;-84
2023/05/07 01:02:58;;;;;;;8.73;3.40;;;19.00;1.00;;;;;;4939368;29;20173;-85
2023/05/07 01:05:26;;;;;;;7.70;2.90;;;19.00;1.00;;;;;;4938207;29;20169;-87
2023/05/07 01:07:54;;;;;;;6.43;3.30;;;19.10;1.00;;;;;;4939558;29;20207;-84
2023/05/07 01:10:20;;;;;;;7.33;3.40;;;19.10;1.00;;;;;;4938215;29;20184;-83
2023/05/07 01:12:48;;;;;;;7.73;2.80;;;19.10;1.00;;;;;;4936426;29;20562;-85
2023/05/07 01:15:14;;;;;;;6.30;3.40;;;19.10;1.00;;;;;;4938063;29;20180;-83
2023/05/07 01:17:41;;;;;;;7.97;3.67;;;19.10;1.00;;;;;;4937701;29;20282;-83
2023/05/07 01:20:10;;;;;;;7.13;3.03;;;19.10;1.00;;;;;;4921910;29;20562;-84
2023/05/07 01:22:38;;;;;;;7.60;3.33;;;19.10;1.00;;;;;;4936188;29;20175;-81
2023/05/07 01:25:05;;;;;;;9.77;3.53;;;19.00;1.00;;;;;;4934866;29;20177;-81
2023/05/07 01:27:33;;;;;;;9.97;3.73;;;19.00;1.00;;;;;;4952313;28;20156;-79
2023/05/07 01:29:58;;;;;;;5.93;3.10;;;19.00;1.00;;;;;;4960153;28;20215;-82
2023/05/07 01:32:35;;;;;;;7.00;2.93;;;18.80;1.00;;;;;;4955790;28;20184;-81
2023/05/07 01:35:04;;;;;;;7.37;3.20;;;18.70;1.00;;;;;;4943010;29;20518;-84
2023/05/07 01:37:30;;;;;;;9.40;3.47;;;18.60;1.00;;;;;;4941363;29;20303;-84
2023/05/07 01:39:57;;;;;;;7.17;3.30;;;18.60;1.00;;;;;;4941738;29;20208;-85
2023/05/07 01:42:24;;;;;;;8.10;3.17;;;18.70;1.00;;;;;;4941201;29;20263;-84
2023/05/07 01:44:51;;;;;;;6.23;3.20;;;18.80;1.00;;;;;;4940436;29;20200;-84
2023/05/07 01:47:17;;;;;;;8.50;3.07;;;18.80;1.00;;;;;;4945198;28;20160;-83
2023/05/07 01:49:43;;;;;;;8.20;3.80;;;18.80;1.00;;;;;;4963774;28;20195;-84
2023/05/07 01:52:11;;;;;;;10.47;3.47;;;18.70;1.00;;;;;;4962602;28;20176;-84
2023/05/07 01:54:37;;;;;;;6.57;3.50;;;18.60;1.00;;;;;;4958910;28;20191;-84
2023/05/07 01:57:04;;;;;;;6.70;3.13;;;18.70;1.00;;;;;;4947144;29;20303;-83
2023/05/07 01:59:33;;;;;;;6.33;2.87;;;18.70;1.00;;;;;;4940231;29;20212;-84
2023/05/07 02:02:04;;;;;;;7.97;3.37;;;18.70;1.00;;;;;;4939196;29;20257;-84
2023/05/07 02:04:30;;;;;;;7.03;3.50;;;18.80;1.00;;;;;;4938724;29;20242;-83
2023/05/07 02:06:55;;;;;;;7.03;3.00;;;18.80;1.00;;;;;;4940274;29;20585;-81
2023/05/07 02:09:22;;;;;;;7.80;3.33;;;18.90;1.00;;;;;;4944523;29;20195;-84
2023/05/07 02:11:47;;;;;;;7.97;3.20;;;18.90;1.00;;;;;;4939593;29;20358;-83
2023/05/07 02:14:13;;;;;;;11.10;3.93;;;19.00;1.00;;;;;;4939383;29;20264;-83
2023/05/07 02:16:39;;;;;;;8.20;3.33;;;19.00;1.00;;;;;;4939294;29;20554;-84
2023/05/07 02:19:05;;;;;;;9.10;3.77;;;18.90;1.00;;;;;;4939205;29;20195;-85
2023/05/07 02:21:30;;;;;;;9.80;3.87;;;18.90;1.00;;;;;;4938396;29;20279;-85
2023/05/07 02:23:56;;;;;;;7.67;3.03;;;18.90;1.00;;;;;;4939246;29;20258;-84
2023/05/07 02:26:23;;;;;;;8.30;3.80;;;18.80;1.00;;;;;;4940294;29;20583;-85
2023/05/07 02:28:48;;;;;;;7.00;3.30;;;18.80;1.00;;;;;;4940498;29;20177;-80
2023/05/07 02:31:14;;;;;;;8.60;3.40;;;18.80;1.00;;;;;;4937922;29;20234;-80
2023/05/07 02:33:40;;;;;;;9.93;3.97;;;18.90;1.00;;;;;;4937615;29;20667;-81
2023/05/07 02:36:10;;;;;;;11.93;4.03;;;18.80;1.00;;;;;;4937972;29;20180;-83
2023/05/07 02:38:36;;;;;;;8.23;3.57;;;18.80;1.00;;;;;;4939121;29;20186;-78
2023/05/07 02:41:01;;;;;;;6.03;3.50;;;18.60;1.00;;;;;;4937233;29;20236;-83
2023/05/07 02:43:28;;;;;;;10.43;4.00;;;18.60;1.00;;;;;;4938444;29;20178;-83
2023/05/07 02:46:04;;;;;;;8.20;4.03;;;18.50;1.00;;;;;;4937656;29;20671;-82
2023/05/07 02:48:30;;;;;;;7.73;3.47;;;18.60;1.00;;;;;;4937946;29;20178;-84
2023/05/07 02:50:56;;;;;;;7.20;3.63;;;18.60;1.00;;;;;;4938830;29;20577;-84
2023/05/07 02:53:21;;;;;;;8.60;4.10;;;18.50;1.00;;;;;;4938785;29;20199;-84
2023/05/07 02:55:47;;;;;;;8.57;3.63;;;18.60;1.00;;;;;;4937727;29;20511;-80
2023/05/07 02:58:13;;;;;;;7.57;3.73;;;18.60;1.00;;;;;;4938778;29;20585;-85
2023/05/07 03:00:38;;;;;;;6.73;3.60;;;18.60;1.00;;;;;;4938225;29;20183;-83
2023/05/07 03:03:04;;;;;;;7.97;3.90;;;18.70;1.00;;;;;;4941687;29;20166;-83
2023/05/07 03:05:30;;;;;;;6.43;3.70;;;18.60;1.00;;;;;;4958512;28;20164;-85
2023/05/07 03:07:56;;;;;;;6.80;3.80;;;18.60;1.00;;;;;;4961415;28;20236;-80
2023/05/07 03:10:21;;;;;;;8.73;4.10;;;18.70;1.00;;;;;;4962024;28;20207;-82
2023/05/07 03:12:47;;;;;;;11.80;4.43;;;18.70;1.00;;;;;;4954679;28;20183;-80
2023/05/07 03:15:13;;;;;;;8.43;3.97;;;18.60;1.00;;;;;;4945808;29;20189;-84
2023/05/07 03:17:39;;;;;;;8.27;4.00;;;18.60;1.00;;;;;;4939806;29;20576;-84
2023/05/07 03:20:05;;;;;;;9.03;3.80;;;18.50;1.00;;;;;;4938153;29;20178;-85
2023/05/07 03:22:36;;;;;;;6.17;3.77;;;18.50;1.00;;;;;;4939197;29;20232;-84
2023/05/07 03:25:03;;;;;;;8.87;3.70;;;18.50;1.00;;;;;;4939159;29;20261;-78
2023/05/07 03:27:28;;;;;;;9.83;4.40;;;18.60;1.00;;;;;;4922639;29;20315;-85
2023/05/07 03:29:54;;;;;;;10.33;3.90;;;18.60;1.00;;;;;;4936683;29;20673;-86
2023/05/07 03:32:20;;;;;;;8.80;3.97;;;18.60;1.00;;;;;;4937765;29;20181;-84
2023/05/07 03:34:46;;;;;;;10.50;4.07;;;18.60;1.00;;;;;;4937330;29;20191;-81
2023/05/07 03:37:11;;;;;;;9.97;3.80;;;18.60;1.00;;;;;;4936449;29;20585;-79
2023/05/07 03:39:38;;;;;;;8.53;3.83;;;18.70;1.00;;;;;;4937686;29;20183;-84
2023/05/07 03:42:04;;;;;;;6.47;4.07;;;18.70;1.00;;;;;;4937653;29;20185;-83
2023/05/07 03:44:30;;;;;;;7.83;4.13;;;18.70;1.00;;;;;;4936512;29;20185;-81
2023/05/07 03:46:56;;;;;;;9.73;4.07;;;18.70;1.00;;;;;;4940875;29;20199;-82
2023/05/07 03:49:22;;;;;;;7.33;3.63;;;18.70;1.00;;;;;;4955767;28;20182;-81
2023/05/07 03:51:48;;;;;;;7.77;4.33;;;18.60;1.00;;;;;;4958048;28;20191;-82
2023/05/07 03:54:13;;;;;;;7.07;3.80;;;18.60;1.00;;;;;;4960675;28;20642;-78
2023/05/07 03:56:39;;;;;;;6.80;3.70;;;18.60;1.00;;;;;;4956149;28;20217;-83
2023/05/07 03:59:08;;;;;;;8.87;4.20;;;18.70;1.00;;;;;;4946781;29;20190;-83
2023/05/07 04:01:37;;;;;;;10.73;4.40;;;18.70;1.00;;;;;;4944522;29;20715;-83
2023/05/07 04:04:04;;;;;;;11.60;4.30;;;18.70;1.00;;;;;;4937357;29;20176;-80
2023/05/07 04:06:30;;;;;;;8.10;4.00;;;18.70;1.00;;;;;;4939178;29;20227;-81
2023/05/07 04:08:56;;;;;;;10.57;4.27;;;18.70;1.00;;;;;;4938801;29;20239;-84
2023/05/07 04:11:22;;;;;;;9.40;4.70;;;18.70;1.00;;;;;;4939295;29;20174;-85
2023/05/07 04:13:48;;;;;;;7.87;4.13;;;18.70;1.00;;;;;;4937612;29;20699;-83
2023/05/07 04:16:14;;;;;;;10.93;4.47;;;18.50;1.00;;;;;;4936984;29;20201;-83
2023/05/07 04:18:40;;;;;;;7.83;4.47;;;18.50;1.00;;;;;;4938544;29;20185;-83
2023/05/07 04:21:15;;;;;;;10.10;4.60;;;18.40;1.00;;;;;;4954278;29;20227;-84
2023/05/07 04:23:41;;;;;;;8.33;4.43;;;18.40;1.00;;;;;;4952303;29;20185;-84
2023/05/07 04:26:07;;;;;;;10.47;4.57;;;18.50;1.00;;;;;;4937027;29;20165;-84
2023/05/07 04:28:32;;;;;;;10.57;4.87;;;18.50;1.00;;;;;;4959227;29;20191;-84
2023/05/07 04:30:58;;;;;;;9.97;3.90;;;18.50;1.00;;;;;;4955723;29;20191;-82
2023/05/07 04:33:24;;;;;;;9.47;4.20;;;18.60;1.00;;;;;;4959523;28;20189;-80
2023/05/07 04:35:49;;;;;;;12.23;4.83;;;18.50;1.00;;;;;;4974412;28;20167;-80
2023/05/07 04:38:16;;;;;;;9.03;4.70;;;18.50;1.00;;;;;;4944596;29;20223;-84
2023/05/07 04:40:49;;;;;;;8.80;4.37;;;18.50;1.00;;;;;;4938045;29;20184;-83
2023/05/07 04:43:15;;;;;;;10.30;4.30;;;18.50;1.00;;;;;;4951693;29;20175;-84
2023/05/07 04:45:41;;;;;;;10.07;4.90;;;18.40;1.00;;;;;;4936752;29;20181;-83
2023/05/07 04:48:09;;;;;;;9.93;4.57;;;18.40;1.00;;;;;;4936473;29;20264;-84
2023/05/07 04:50:36;;;;;;;8.33;4.47;;;18.40;1.00;;;;;;4951427;29;20723;-84
2023/05/07 04:53:02;;;;;;;9.07;4.30;;;18.50;1.00;;;;;;4951305;28;20169;-84
2023/05/07 04:55:28;;;;;;;8.63;4.40;;;18.40;1.00;;;;;;4960660;28;20225;-80
2023/05/07 04:57:54;;;;;;;9.57;4.20;;;18.40;1.00;;;;;;4959227;28;20242;-82
2023/05/07 05:00:20;;;;;;;10.20;4.03;;;18.40;1.00;;;;;;4957943;29;20149;-85
2023/05/07 05:02:48;;;;;;;14.30;4.67;;;18.40;1.00;;;;;;4964678;29;20173;-84
2023/05/07 05:05:17;;;;;;;10.13;3.97;;;18.40;1.00;;;;;;4952277;29;20584;-84
2023/05/07 05:07:43;;;;;;;9.10;4.27;;;18.50;1.00;;;;;;4952741;28;20200;-84
2023/05/07 05:10:09;;;;;;;10.13;3.63;;;18.50;1.00;;;;;;4942176;29;20175;-83
2023/05/07 05:12:34;;;;;;;8.30;3.53;;;18.50;1.00;;;;;;4941261;29;20598;-79
2023/05/07 05:15:00;;;;;;;10.50;4.47;;;18.50;1.00;;;;;;4954905;29;20532;-85
2023/05/07 05:17:27;;;;;;;8.97;4.57;;;18.60;1.00;;;;;;4954468;29;20212;-84
2023/05/07 05:19:52;;;;;;;7.57;3.80;;;18.70;1.00;;;;;;4940775;29;20183;-84
2023/05/07 05:22:18;;;;;;;6.00;4.00;;;18.80;1.00;;;;;;4940580;29;20172;-83
2023/05/07 05:24:44;;;;;;;10.00;3.93;;;18.80;1.00;;;;;;4956279;29;20178;-81
2023/05/07 05:27:10;;;;;;;12.27;4.03;;;18.80;1.00;;;;;;4945590;29;20168;-84
2023/05/07 05:29:36;;;;;;;7.33;3.80;;;18.90;1.00;;;;;;4943228;29;20175;-85
2023/05/07 05:32:02;;;;;;;5.80;3.23;;;18.90;1.00;;;;;;4941826;29;20175;-84
2023/05/07 05:34:27;;;;;;;7.90;3.63;;;18.90;1.00;;;;;;4956513;29;20646;-84
2023/05/07 05:36:53;;;;;;;8.97;3.70;;;19.00;1.00;;;;;;4955906;29;20213;-83
2023/05/07 05:39:19;;;;;;;9.03;3.57;;;19.00;1.00;;;;;;4939875;29;20184;-80
2023/05/07 05:41:44;;;;;;;7.37;3.43;;;19.10;1.00;;;;;;4940740;29;20593;-81
2023/05/07 05:44:12;;;;;;;8.13;3.70;;;19.10;1.00;;;;;;4940235;29;20535;-83
2023/05/07 05:46:38;;;;;;;8.53;3.53;;;19.20;1.00;;;;;;4940827;29;20193;-82
2023/05/07 05:49:05;;;;;;;9.87;3.93;;;19.20;1.00;;;;;;4954971;29;20699;-81
2023/05/07 05:51:30;;;;;;;7.53;3.70;;;19.20;1.00;;;;;;4940120;29;20256;-80
2023/05/07 05:53:56;;;;;;;8.90;4.20;;;19.10;1.00;;;;;;4940251;29;20204;-80
2023/05/07 05:56:22;;;;;;;7.93;3.90;;;18.80;1.00;;;;;;4955441;29;20197;-81
2023/05/07 05:58:47;;;;;;;6.90;3.63;;;18.60;1.00;;;;;;4955109;29;20572;-79
2023/05/07 06:01:14;;;;;;;10.07;4.20;;;18.40;1.00;;;;;;4941060;29;20177;-80
2023/05/07 06:03:40;;;;;;;8.33;4.47;;;18.10;1.00;;;;;;4940569;29;20186;-82
2023/05/07 06:06:05;;;;;;;11.07;4.80;;;17.80;4.80;;;;;;4939610;29;20675;-80
2023/05/07 06:08:32;;;;;;;9.07;4.30;;;17.80;4.70;;;;;;4943454;29;20190;-80
2023/05/07 06:10:59;;;;;;;9.23;4.70;;;17.90;3.70;;;;;;4942060;29;20165;-84
2023/05/07 06:13:24;;;;;;;11.73;5.13;;;17.80;7.60;;;;;;4955010;29;20178;-79
2023/05/07 06:15:50;;;;;;;10.57;5.27;;;17.60;13.80;;;;;;4940654;29;20252;-83
2023/05/07 06:18:16;;;;;;;11.97;4.40;;;17.70;12.50;;;;;;4939681;29;20219;-82
2023/05/07 06:20:41;;;;;;;11.17;5.03;;;17.70;14.20;;;;;;4940215;29;20205;-82
2023/05/07 06:23:08;;;;;;;9.37;4.30;;;17.70;17.10;;;;;;4940909;29;20638;-83
2023/05/07 06:25:33;;;;;;;9.37;4.80;;;17.60;20.30;;;;;;4974918;28;20190;-79
2023/05/07 06:28:01;;;;;;;7.90;4.73;;;17.40;29.10;;;;;;4958489;28;20201;-83
2023/05/07 06:30:27;;;;;;;7.77;4.77;;;17.50;28.40;;;;;;4977053;28;20210;-80
2023/05/07 06:32:54;;;;;;;8.37;4.80;;;17.60;27.60;;;;;;4952291;28;20182;-80
2023/05/07 06:35:20;;;;;;;9.00;5.50;;;17.50;31.30;;;;;;4946730;29;20177;-82
2023/05/07 06:37:46;;;;;;;9.07;5.23;;;17.60;30.00;;;;;;4955860;29;20218;-80
2023/05/07 06:40:12;;;;;;;11.43;4.90;;;17.50;33.60;;;;;;4942827;28;20195;-79
2023/05/07 06:42:40;;;;;;;8.50;4.70;;;17.60;35.20;;;;;;4940207;29;20667;-81
2023/05/07 06:45:08;;;;;;;8.37;4.43;;;17.70;32.90;;;;;;4955660;29;20595;-81
2023/05/07 06:47:35;;;;;;;8.77;4.70;;;17.60;38.00;;;;;;4939682;29;20597;-83
2023/05/07 06:50:02;;;;;;;9.50;4.97;;;17.60;40.00;;;;;;4939147;29;20200;-85
2023/05/07 06:52:27;;;;;;;8.97;4.97;;;17.60;40.60;;;;;;4941425;29;20180;-85
2023/05/07 06:54:53;;;;;;;10.30;4.90;;;17.60;44.70;;;;;;4954652;29;20184;-85
2023/05/07 06:57:19;;;;;;;7.10;4.40;;;17.70;43.70;;;;;;4954649;29;20218;-85
2023/05/07 06:59:45;;;;;;;9.50;4.33;;;17.70;47.00;;;;;;4941246;29;20168;-84
2023/05/07 07:02:10;;;;;;;8.77;4.47;;;17.40;56.10;;;;;;4946754;29;20193;-84
2023/05/07 07:04:36;;;;;;;10.37;4.43;;;17.40;59.80;;;;;;4966761;29;20177;-78
2023/05/07 07:07:04;;;;;;;10.07;4.50;;;17.40;58.60;;;;;;4972565;28;20194;-80
2023/05/07 07:09:29;;;;;;;8.73;4.30;;;17.30;63.00;;;;;;4952379;28;20191;-81
2023/05/07 07:11:57;;;;;;;8.80;4.23;;;17.30;67.70;;;;;;4950183;29;20202;-81
2023/05/07 07:14:23;;;;;;;6.70;4.30;;;17.10;74.40;;;;;;4943438;29;20622;-80
2023/05/07 07:16:49;;;;;;;7.23;4.57;;;17.00;79.40;;;;;;4940386;29;20227;-82
2023/05/07 07:19:17;;;;;;;7.27;4.20;;;17.00;83.10;;;;;;4942669;29;20192;-82
2023/05/07 07:21:44;;;;;;;7.37;3.77;;;17.00;86.70;;;;;;4939895;29;20199;-84
2023/05/07 07:24:10;;;;;;;6.17;4.20;;;17.00;91.10;;;;;;4953012;29;20185;-82
2023/05/07 07:26:35;;;;;;;9.60;4.60;;;17.00;90.00;;;;;;4941292;29;20169;-84
2023/05/07 07:29:01;;;;;;;8.63;4.27;;;17.10;89.00;;;;;;4955330;29;20204;-84
2023/05/07 07:31:27;;;;;;;6.17;4.37;;;17.10;87.40;;;;;;4939404;29;20170;-85
2023/05/07 07:33:53;;;;;;;9.43;5.17;;;17.20;90.00;;;;;;4944335;29;20532;-84
2023/05/07 07:36:18;;;;;;;6.20;4.40;;;17.20;91.80;;;;;;4960080;28;20164;-84
2023/05/07 07:38:44;;;;;;;7.10;3.50;;;17.20;92.10;;;;;;4960190;28;20180;-84
2023/05/07 07:41:11;;;;;;;9.10;4.37;;;17.20;91.10;;;;;;4974842;28;20196;-83
2023/05/07 07:43:36;;;;;;;11.33;5.00;;;17.20;93.40;;;;;;4948525;29;20205;-85
2023/05/07 07:46:02;;;;;;;8.53;4.70;;;17.30;95.10;;;;;;4943631;29;20200;-81
2023/05/07 07:48:28;;;;;;;7.07;4.60;;;17.30;96.00;;;;;;4958890;29;20173;-80
2023/05/07 07:50:54;;;;;;;9.40;4.70;;;17.30;97.40;;;;;;4943934;29;20183;-83
2023/05/07 07:53:20;;;;;;;7.23;4.77;;;17.40;96.30;;;;;;4956015;29;20173;-85
2023/05/07 07:55:46;;;;;;;7.10;4.60;;;17.60;92.60;;;;;;4960717;29;20183;-86
2023/05/07 07:58:12;;;;;;;9.83;4.37;;;17.60;92.30;;;;;;4975305;28;20252;-85
2023/05/07 08:00:37;;;;;;;10.97;5.43;;;17.60;93.20;;;;;;4976540;28;20191;-84
2023/05/07 08:03:03;;;;;;;8.63;5.23;;;17.80;91.60;;;;;;4972062;28;20200;-86
2023/05/07 08:05:29;;;;;;;9.27;5.27;;;17.70;92.40;;;;;;4956204;29;20170;-82
2023/05/07 08:07:55;;;;;;;7.77;4.20;;;17.70;93.20;;;;;;4945761;29;20277;-84
2023/05/07 08:10:23;;;;;;;9.30;4.20;;;17.70;93.00;;;;;;4938992;29;20693;-86
2023/05/07 08:12:50;;;;;;;6.67;4.10;;;17.70;91.00;;;;;;4941575;29;20178;-85
2023/05/07 08:15:16;;;;;;;7.20;4.53;;;17.70;92.60;;;;;;4953071;29;20286;-84
2023/05/07 08:17:41;;;;;;;9.77;4.33;;;17.60;95.60;;;;;;4950092;29;20213;-84
2023/05/07 08:20:07;;;;;;;8.53;4.30;;;17.50;97.70;;;;;;4946626;29;20553;-80
2023/05/07 08:22:35;;;;;;;6.50;3.77;;;17.60;99.00;;;;;;4940894;29;20213;-84
2023/05/07 08:25:02;;;;;;;9.03;4.53;;;17.60;95.20;;;;;;4937548;29;20229;-87
2023/05/07 08:27:27;;;;;;;8.27;4.00;;;17.70;93.30;;;;;;4951431;29;20683;-84
2023/05/07 08:29:53;;;;;;;7.07;4.20;;;17.70;95.40;;;;;;4953161;29;20212;-84
2023/05/07 08:32:21;;;;;;;5.53;4.20;;;17.60;96.10;;;;;;4953172;29;20277;-84
2023/05/07 08:34:48;;;;;;;7.73;4.40;;;17.70;96.60;;;;;;4954942;29;20171;-85
2023/05/07 08:37:14;;;;;;;6.63;4.37;;;17.60;98.50;;;;;;4956417;29;20209;-85
2023/05/07 08:39:40;;;;;;;7.50;4.10;;;17.60;99.90;;;;;;4955206;29;20685;-81
2023/05/07 08:42:08;;;;;;;6.40;4.17;;;17.60;99.00;;;;;;4938874;29;20191;-82
2023/05/07 08:44:37;;;;;;;6.60;4.53;;;17.70;92.80;;;;;;4938854;29;20173;-82
2023/05/07 08:47:06;;;;;;;7.10;4.50;;;17.80;91.10;;;;;;4954643;29;20239;-86
2023/05/07 08:49:32;;;;;;;8.50;4.47;;;17.80;91.80;;;;;;4940203;29;20209;-83
2023/05/07 08:52:00;;;;;;;7.00;4.73;;;17.80;95.00;;;;;;4937838;29;20316;-85
2023/05/07 08:54:27;;;;;;;7.80;4.67;;;17.90;95.20;;;;;;4939607;29;20200;-83
2023/05/07 08:56:53;;;;;;;6.90;4.63;;;18.00;95.20;;;;;;4938915;29;20205;-83
2023/05/07 08:59:20;;;;;;;8.10;4.87;;;18.10;95.10;;;;;;4938492;29;20189;-82
2023/05/07 09:01:45;;;;;;;6.87;4.87;;;18.00;95.40;;;;;;4937870;29;20645;-83
2023/05/07 09:04:12;;;;;;;6.00;4.27;;;18.10;95.50;;;;;;4939674;29;20169;-82
2023/05/07 09:06:41;;;;;;;6.73;4.97;;;18.20;94.70;;;;;;4943375;29;20215;-79
2023/05/07 09:09:12;;;;;;;7.40;4.10;;;18.30;94.90;;;;;;4946803;29;20178;-82
2023/05/07 09:11:38;;;;;;;7.37;4.40;;;18.40;93.10;;;;;;4946174;29;20186;-81
2023/05/07 09:14:03;;;;;;;6.73;4.43;;;18.50;92.10;;;;;;4943826;29;20179;-83
2023/05/07 09:16:31;;;;;;;6.33;4.23;;;18.60;91.20;;;;;;4941166;29;20646;-82
2023/05/07 09:18:59;;;;;;;7.03;4.47;;;18.40;90.30;;;;;;4951651;29;20202;-81
2023/05/07 09:21:25;;;;;;;7.37;5.10;;;18.20;91.50;;;;;;4950528;29;20176;-86
2023/05/07 09:23:53;;;;;;;7.10;4.80;;;18.20;92.80;;;;;;4952492;29;20229;-84
2023/05/07 09:26:21;;;;;;;8.80;5.00;;;18.20;93.30;;;;;;4938459;29;20173;-85
2023/05/07 09:28:48;;;;;;;8.67;4.87;;;18.20;93.30;;;;;;4953150;29;20195;-86
2023/05/07 09:31:14;;;;;;;8.73;5.50;;;18.20;93.90;;;;;;4937057;29;20627;-85
2023/05/07 09:33:40;;;;;;;6.80;5.20;;;18.40;92.60;;;;;;4936937;29;20306;-83
2023/05/07 09:36:08;;;;;;;6.63;4.67;;;18.60;90.30;;;;;;4937668;29;20173;-84
2023/05/07 09:38:35;;;;;;;7.00;4.90;;;18.80;89.20;;;;;;4946039;29;20187;-83
2023/05/07 09:41:12;;;;;;;7.90;5.10;;;18.90;87.10;;;;;;4942984;29;20186;-82
2023/05/07 09:43:40;;;;;;;6.30;4.87;;;19.00;85.40;;;;;;4950686;29;20176;-80
2023/05/07 09:46:14;;;;;;;20.77;14.63;;;19.10;84.70;;;;;;4953683;28;20174;-83
2023/05/07 09:48:41;;;;;;;6.97;4.03;;;19.20;82.60;;;;;;4958773;29;20194;-82
2023/05/07 09:52:02;;;;;;;6.13;2.90;;;19.30;79.10;;;;;;4972557;29;20240;-84
2023/05/07 09:54:44;;;;;;;6.20;3.17;;;19.30;68.40;;;;;;4928971;29;20625;-83
2023/05/07 09:57:11;;;;;;;5.27;3.03;;;19.30;65.90;;;;;;4890922;29;20281;-86
2023/05/07 09:59:38;;;;;;;7.07;3.90;;;19.30;65.20;;;;;;4925376;29;20186;-84
2023/05/07 10:02:06;;;;;;;6.80;3.90;;;19.20;65.90;;;;;;4941151;29;20199;-82
2023/05/07 10:04:32;;;;;;;8.10;3.63;;;19.00;71.40;;;;;;4941087;29;20170;-82
2023/05/07 10:06:59;;;;;;;6.20;3.97;;;19.00;77.50;;;;;;4943566;29;20211;-84
2023/05/07 10:09:26;;;;;;;6.80;3.80;;;18.80;79.50;;;;;;4956641;29;20195;-85
2023/05/07 10:12:12;;;;;;;5.87;3.67;;;18.80;82.30;;;;;;4942945;29;20221;-85
2023/05/07 10:14:38;;;;;;;6.77;3.73;;;18.80;87.40;;;;;;4941158;29;20176;-82
2023/05/07 10:17:05;;;;;;;6.30;3.60;;;18.80;83.30;;;;;;4964060;29;20256;-86
2023/05/07 10:19:32;;;;;;;8.13;4.17;;;18.60;87.40;;;;;;4933903;29;20203;-86
2023/05/07 10:22:04;;;;;;;6.23;4.33;;;18.40;92.00;;;;;;4921445;29;20612;-86
2023/05/07 10:24:43;;;;;;;8.43;4.40;;;18.40;94.80;;;;;;4922391;29;20176;-84
2023/05/07 10:27:12;;;;;;;5.77;4.20;;;18.60;93.80;;;;;;4920100;29;20254;-86
2023/05/07 10:29:50;;;;;;;7.43;4.90;;;18.80;87.30;;;;;;4922335;29;20203;-83
2023/05/07 10:32:36;;;;;;;8.33;5.47;;;18.90;83.20;;;;;;4937125;29;20188;-82
2023/05/07 10:35:06;;;;;;;9.63;6.50;;;19.00;83.10;;;;;;4937726;29;20188;-85
2023/05/07 10:37:32;;;;;;;9.23;5.50;;;18.90;90.30;;;;;;4937598;29;20219;-84
2023/05/07 10:39:58;;;;;;;8.17;5.90;;;18.80;93.20;;;;;;4934642;29;20179;-84
2023/05/07 10:42:27;;;;;;;7.30;5.53;;;18.90;92.80;;;;;;4934929;29;20191;-84
2023/05/07 10:45:12;;;;;;;6.60;3.90;;;18.90;93.50;;;;;;4935627;29;20247;-86
2023/05/07 10:48:14;;;;;;;7.27;4.50;;;18.90;93.10;;;;;;4938974;29;20188;-85
2023/05/07 10:50:47;;;;;;;6.10;4.27;;;19.10;92.00;;;;;;4935604;29;20185;-84
2023/05/07 10:53:25;;;;;;;6.07;4.30;;;19.20;91.50;;;;;;4938075;29;20172;-85
2023/05/07 10:56:28;;;;;;;5.27;3.80;;;19.10;90.60;;;;;;4938197;29;20174;-85
2023/05/07 10:58:55;;;;;;;5.13;3.30;;;19.10;90.20;;;;;;4908570;29;20201;-87
2023/05/07 11:01:55;;;;;;;4.70;2.87;;;19.20;84.40;;;;;;4925449;29;20247;-88
2023/05/07 11:04:26;;;;;;;4.70;2.50;;;19.40;79.10;;;;;;4918530;29;20189;-84
2023/05/07 11:07:12;;;;;;;5.43;2.67;;;19.50;74.00;;;;;;4941280;29;20198;-85
2023/05/07 11:09:52;;;;;;;6.23;3.17;;;19.60;70.80;;;;;;4940883;29;20164;-81
2023/05/07 11:12:43;;;;;;;5.47;3.00;;;19.70;67.10;;;;;;4936975;29;20158;-89
2023/05/07 11:15:38;;;;;;;4.37;3.00;;;19.80;64.80;;;;;;4940824;29;20235;-88
2023/05/07 11:18:46;;;;;;;6.37;3.73;;;19.80;60.80;;;;;;4927542;29;20209;-85
2023/05/07 11:21:38;;;;;;;5.57;3.50;;;19.70;67.10;;;;;;4929514;29;20181;-86
2023/05/07 11:24:29;;;;;;;3.40;2.50;;;19.50;72.80;;;;;;4930575;29;20181;-83
2023/05/07 11:26:55;;;;;;;4.67;2.90;;;19.70;70.20;;;;;;4932577;29;20257;-86
2023/05/07 11:29:22;;;;;;;5.80;3.07;;;19.60;60.00;;;;;;4941378;29;20168;-87
2023/05/07 11:31:54;;;;;;;5.00;2.50;;;19.80;61.50;;;;;;4930354;29;20537;-85
2023/05/07 11:34:25;;;;;;;5.37;2.97;;;19.70;63.70;;;;;;4929580;29;20220;-89
2023/05/07 11:36:54;;;;;;;5.30;3.00;;;19.80;57.50;;;;;;4927867;29;20228;-88
2023/05/07 11:39:32;;;;;;;5.13;3.20;;;19.60;54.90;;;;;;4918157;29;20184;-86
2023/05/07 11:41:59;;;;;;;5.77;3.00;;;19.40;62.50;;;;;;4918347;29;20183;-85
2023/05/07 11:44:39;;;;;;;5.57;3.03;;;19.30;71.40;;;;;;4939152;29;20167;-87
2023/05/07 11:47:05;;;;;;;6.80;2.83;;;19.10;83.20;;;;;;4933777;29;20176;-87
2023/05/07 11:49:31;;;;;;;5.60;2.87;;;19.10;89.30;;;;;;4939146;29;20177;-86
2023/05/07 11:51:58;;;;;;;5.33;2.97;;;19.20;79.00;;;;;;4944829;29;20177;-85
2023/05/07 11:54:24;;;;;;;4.10;2.40;;;19.20;80.60;;;;;;4940308;29;20199;-88
2023/05/07 11:56:49;;;;;;;6.20;2.60;;;19.30;77.70;;;;;;4938986;29;20203;-88
2023/05/07 11:59:20;;;;;;;4.10;2.77;;;19.30;78.70;;;;;;4938973;29;20207;-87
2023/05/07 12:01:47;;;;;;;5.83;2.67;;;19.50;76.70;;;;;;4933141;29;20254;-85
2023/05/07 12:04:13;;;;;;;5.93;2.70;;;19.70;68.60;;;;;;4927625;29;20164;-87
2023/05/07 12:06:39;;;;;;;5.37;2.80;;;19.70;68.20;;;;;;4933598;29;20204;-88
2023/05/07 12:09:07;;;;;;;4.50;2.50;;;19.60;72.80;;;;;;4936005;29;20196;-85
2023/05/07 12:11:33;;;;;;;5.83;2.80;;;19.40;75.20;;;;;;4936589;29;20173;-88
2023/05/07 12:14:00;;;;;;;5.23;2.87;;;19.30;76.50;;;;;;4935561;29;20196;-82
2023/05/07 12:16:27;;;;;;;4.73;3.00;;;19.30;79.40;;;;;;4932205;29;20183;-87
2023/05/07 12:18:54;;;;;;;5.27;2.73;;;19.30;81.50;;;;;;4937663;29;20253;-89
2023/05/07 12:21:20;;;;;;;4.87;2.70;;;19.50;82.30;;;;;;4927941;29;20176;-87
2023/05/07 12:23:46;;;;;;;4.63;2.80;;;19.60;71.20;;;;;;4926852;29;20233;-81
2023/05/07 12:26:14;;;;;;;3.27;2.33;;;19.70;64.50;;;;;;4923299;29;20192;-87
2023/05/07 12:28:40;;;;;;;3.87;2.60;;;19.70;62.60;;;;;;4926236;29;20626;-88
2023/05/07 12:31:06;;;;;;;4.97;3.33;;;19.60;67.80;;;;;;4921912;29;20180;-87
2023/05/07 12:33:32;;;;;;;4.90;2.80;;;19.70;64.40;;;;;;4925421;29;20197;-87
2023/05/07 12:36:05;;;;;;;5.00;3.57;;;19.90;59.00;;;;;;4923441;29;20268;-86
2023/05/07 12:38:35;;;;;;;6.77;3.53;;;19.90;57.10;;;;;;4922906;29;20299;-82
2023/05/07 12:41:01;;;;;;;5.90;3.70;;;19.90;58.10;;;;;;4924865;29;20538;-87
2023/05/07 12:43:28;;;;;;;5.87;4.40;;;19.90;60.30;;;;;;4924457;29;20182;-82
2023/05/07 12:46:01;;;;;;;4.73;4.00;;;19.70;67.40;;;;;;4923574;29;20265;-85
2023/05/07 12:48:29;;;;;;;4.97;4.10;;;19.70;65.30;;;;;;4924660;29;20211;-85
2023/05/07 12:50:57;;;;;;;6.23;4.47;;;19.80;64.40;;;;;;4928302;29;20182;-87
2023/05/07 12:53:25;;;;;;;5.57;4.00;;;20.00;63.80;;;;;;4928012;29;20764;-88
2023/05/07 12:55:55;;;;;;;5.70;4.50;;;20.10;63.70;;;;;;4927282;29;20184;-89